Time;durP1;ratioP1;P1;durP2;ratioP2;P2;SDS_P1;SDS_P2;PMS_P1;PMS_P2;Temp;Humidity;BMP_temperature;BMP_pressure;BME280_temperature;BME280_humidity;BME280_pressure;Samples;Min_cycle;Max_cycle;Signal;HPM_P1;HPM_P2
2023/06/10 00:01:55;;;;;;;10.43;3.62;;;;;;;22.86;69.43;97647.63;4425047;32;20150;-86
2023/06/10 00:04:22;;;;;;;6.85;3.03;;;;;;;22.93;69.90;97645.22;4425387;32;20659;-86
2023/06/10 00:06:49;;;;;;;10.63;3.33;;;;;;;22.96;70.04;97640.47;4425497;32;20158;-86
2023/06/10 00:09:16;;;;;;;8.48;3.40;;;;;;;22.93;70.21;97639.97;4424788;32;20104;-86
2023/06/10 00:11:43;;;;;;;9.52;3.70;;;;;;;23.10;69.96;97647.00;4425267;32;20398;-86
2023/06/10 00:14:10;;;;;;;9.18;3.12;;;;;;;23.33;69.13;97645.50;4425243;32;20732;-86
2023/06/10 00:16:38;;;;;;;8.63;3.40;;;;;;;23.34;69.19;97646.34;4425076;32;20141;-86
2023/06/10 00:19:06;;;;;;;7.00;3.17;;;;;;;23.09;69.81;97640.94;4425225;32;20150;-86
2023/06/10 00:21:44;;;;;;;7.68;2.85;;;;;;;23.77;67.52;97648.06;4423776;32;20094;-86
2023/06/10 00:24:14;;;;;;;9.38;3.70;;;;;;;24.30;64.36;97646.94;4425477;32;20212;-86
2023/06/10 00:26:41;;;;;;;9.77;3.28;;;;;;;24.63;61.78;97647.03;4425403;32;20155;-86
2023/06/10 00:29:08;;;;;;;11.02;3.30;;;;;;;23.98;64.14;97652.94;4411255;32;20445;-86
2023/06/10 00:31:36;;;;;;;7.30;3.10;;;;;;;23.59;66.35;97650.78;4425124;32;20081;-86
2023/06/10 00:34:03;;;;;;;8.07;3.25;;;;;;;23.74;65.67;97645.78;4425296;32;20163;-86
2023/06/10 00:36:30;;;;;;;11.63;3.30;;;;;;;23.33;67.79;97644.69;4424947;32;20161;-86
2023/06/10 00:38:57;;;;;;;9.90;3.30;;;;;;;23.21;68.24;97649.38;4425102;32;20098;-85
2023/06/10 00:41:26;;;;;;;9.50;3.40;;;;;;;23.81;66.12;97654.66;4425168;32;20459;-86
2023/06/10 00:43:53;;;;;;;7.55;3.00;;;;;;;24.44;62.10;97648.16;4424784;32;20495;-86
2023/06/10 00:46:21;;;;;;;9.30;2.97;;;;;;;24.11;62.96;97657.75;4425141;32;20101;-86
2023/06/10 00:48:49;;;;;;;8.45;2.95;;;;;;;23.93;63.27;97657.88;4411299;32;20177;-86
2023/06/10 00:51:16;;;;;;;7.62;3.30;;;;;;;24.12;63.15;97657.59;4424681;32;20157;-86
2023/06/10 00:53:44;;;;;;;8.15;3.10;;;;;;;23.83;64.57;97657.16;4425117;32;20094;-86
2023/06/10 00:56:11;;;;;;;8.88;3.17;;;;;;;23.70;65.00;97652.31;4425033;32;20149;-86
2023/06/10 00:58:38;;;;;;;9.20;3.12;;;;;;;23.36;66.45;97650.47;4424577;32;20207;-85
2023/06/10 01:01:05;;;;;;;10.45;3.30;;;;;;;23.57;65.91;97663.25;4424976;32;20081;-86
2023/06/10 01:03:36;;;;;;;7.87;3.42;;;;;;;23.75;65.61;97660.59;4424670;32;20468;-86
2023/06/10 01:06:19;;;;;;;11.10;3.42;;;;;;;23.82;65.55;97661.63;4425020;32;20105;-86
2023/06/10 01:08:53;;;;;;;10.65;3.58;;;;;;;23.97;64.85;97658.38;4424849;32;20156;-86
2023/06/10 01:11:25;;;;;;;10.13;4.10;;;;;;;23.66;65.91;97662.34;4424238;32;20521;-86
2023/06/10 01:13:53;;;;;;;11.55;3.55;;;;;;;23.41;66.42;97663.19;4411074;32;20465;-86
2023/06/10 01:16:20;;;;;;;11.73;3.87;;;;;;;23.44;66.65;97662.84;4424831;32;20115;-86
2023/06/10 01:18:47;;;;;;;9.38;4.00;;;;;;;23.14;68.51;97652.78;4424376;32;20082;-85
2023/06/10 01:21:24;;;;;;;9.27;3.83;;;;;;;23.60;66.90;97654.25;4424696;32;20149;-86
2023/06/10 01:23:55;;;;;;;12.32;4.40;;;;;;;23.14;68.99;97647.53;4424882;32;20141;-85
2023/06/10 01:26:30;;;;;;;15.25;5.10;;;;;;;22.05;74.53;97642.38;4424476;32;20090;-86
2023/06/10 01:29:00;;;;;;;10.27;4.62;;;;;;;22.50;73.20;97638.91;4424705;32;20123;-86
2023/06/10 01:31:45;;;;;;;9.10;4.12;;;;;;;22.48;72.92;97636.44;4424303;32;20159;-86
2023/06/10 01:34:14;;;;;;;13.15;4.78;;;;;;;22.71;72.15;97649.94;4413070;32;20110;-86
2023/06/10 01:36:45;;;;;;;11.60;4.70;;;;;;;23.15;70.19;97646.53;4426476;32;20440;-86
2023/06/10 01:39:12;;;;;;;10.48;4.20;;;;;;;22.74;71.41;97644.38;4412371;32;20157;-86
2023/06/10 01:41:40;;;;;;;11.18;4.70;;;;;;;23.07;70.27;97642.03;4426399;32;20154;-86
2023/06/10 01:44:06;;;;;;;10.13;4.60;;;;;;;23.66;67.08;97643.91;4412835;32;20189;-86
2023/06/10 01:46:33;;;;;;;10.20;4.65;;;;;;;23.26;68.84;97641.84;4426121;32;20109;-86
2023/06/10 01:49:00;;;;;;;12.75;4.72;;;;;;;23.73;66.48;97656.47;4412356;32;20143;-86
2023/06/10 01:51:27;;;;;;;17.02;5.35;;;;;;;23.54;66.26;97653.03;4426349;32;20129;-86
2023/06/10 01:53:54;;;;;;;11.55;5.03;;;;;;;23.39;67.50;97657.22;4426005;32;20162;-86
2023/06/10 01:56:21;;;;;;;10.45;5.18;;;;;;;23.44;67.25;97654.13;4426336;32;20098;-86
2023/06/10 01:58:48;;;;;;;12.73;5.05;;;;;;;23.75;66.37;97655.31;4426279;32;20475;-85
2023/06/10 02:01:15;;;;;;;12.77;4.90;;;;;;;23.54;66.75;97654.84;4425892;32;20509;-86
2023/06/10 02:03:42;;;;;;;12.80;5.18;;;;;;;23.04;69.01;97647.59;4426339;32;20143;-86
2023/06/10 02:06:09;;;;;;;11.63;5.78;;;;;;;22.52;71.41;97637.78;4426317;32;20101;-86
2023/06/10 02:08:36;;;;;;;14.07;5.68;;;;;;;22.03;74.85;97644.31;4425871;32;20105;-85
2023/06/10 02:11:03;;;;;;;14.63;5.30;;;;;;;22.64;72.01;97645.44;4425993;32;20077;-86
2023/06/10 02:13:30;;;;;;;11.57;5.22;;;;;;;23.50;67.41;97643.81;4426072;32;20106;-86
2023/06/10 02:15:57;;;;;;;13.75;5.70;;;;;;;23.21;68.06;97646.75;4426039;32;20102;-86
2023/06/10 02:18:24;;;;;;;13.55;5.18;;;;;;;22.89;69.49;97644.72;4426051;32;20150;-85
2023/06/10 02:20:51;;;;;;;11.15;5.03;;;;;;;22.29;71.70;97646.25;4425810;32;20078;-86
2023/06/10 02:23:18;;;;;;;11.95;5.60;;;;;;;21.91;74.31;97643.69;4426089;32;20154;-86
2023/06/10 02:25:45;;;;;;;11.55;5.82;;;;;;;22.00;74.60;97638.50;4426131;32;20482;-86
2023/06/10 02:28:12;;;;;;;10.98;5.70;;;;;;;21.42;77.11;97644.03;4425679;32;20103;-86
2023/06/10 02:30:41;;;;;;;12.43;5.20;;;;;;;21.90;74.83;97643.81;4425776;32;20130;-86
2023/06/10 02:33:11;;;;;;;11.45;4.82;;;;;;;22.63;71.29;97644.59;4425841;32;20153;-86
2023/06/10 02:35:38;;;;;;;12.48;5.57;;;;;;;23.04;67.90;97639.72;4425808;32;20102;-86
2023/06/10 02:38:05;;;;;;;11.50;5.32;;;;;;;22.62;69.78;97636.88;4426022;32;20411;-86
2023/06/10 02:40:32;;;;;;;14.00;5.50;;;;;;;22.68;69.45;97634.47;4425755;32;20591;-86
2023/06/10 02:42:59;;;;;;;13.57;5.85;;;;;;;22.37;70.64;97639.28;4425694;32;20115;-86
2023/06/10 02:45:26;;;;;;;11.38;5.62;;;;;;;22.57;69.95;97637.34;4425351;32;20101;-86
2023/06/10 02:47:53;;;;;;;11.43;5.75;;;;;;;22.47;69.61;97633.97;4425995;32;20164;-86
2023/06/10 02:50:20;;;;;;;11.90;5.62;;;;;;;22.88;67.62;97629.91;4425473;32;20074;-85
2023/06/10 02:52:48;;;;;;;11.68;5.35;;;;;;;22.94;67.54;97631.09;4425864;32;20631;-86
2023/06/10 02:55:15;;;;;;;11.40;5.25;;;;;;;22.23;70.82;97630.13;4425984;32;20147;-85
2023/06/10 02:57:42;;;;;;;10.63;4.90;;;;;;;22.44;70.51;97629.00;4425616;32;20123;-86
2023/06/10 03:00:10;;;;;;;15.02;6.20;;;;;;;22.80;68.58;97629.81;4425810;32;20139;-85
2023/06/10 03:02:38;;;;;;;13.48;5.60;;;;;;;22.50;69.56;97628.41;4425818;32;20098;-86
2023/06/10 03:05:09;;;;;;;13.18;5.40;;;;;;;22.72;68.04;97642.88;4425730;32;20475;-85
2023/06/10 03:07:37;;;;;;;11.98;5.60;;;;;;;22.59;68.27;97638.00;4425933;32;20104;-86
2023/06/10 03:10:05;;;;;;;13.05;6.03;;;;;;;22.34;69.67;97644.84;4425160;32;20153;-86
2023/06/10 03:12:32;;;;;;;11.88;5.35;;;;;;;22.44;68.51;97644.78;4425552;32;20467;-86
2023/06/10 03:14:59;;;;;;;13.30;5.87;;;;;;;22.23;70.23;97650.31;4425742;32;20408;-86
2023/06/10 03:17:26;;;;;;;13.40;6.35;;;;;;;22.17;70.89;97654.34;4425471;32;20099;-86
2023/06/10 03:19:53;;;;;;;11.63;5.53;;;;;;;22.94;66.80;97647.69;4425592;32;20082;-86
2023/06/10 03:22:21;;;;;;;11.43;5.40;;;;;;;22.85;67.65;97655.69;4425717;32;20097;-86
2023/06/10 03:24:50;;;;;;;12.80;5.55;;;;;;;22.07;70.14;97664.09;4425383;32;20147;-86
2023/06/10 03:27:17;;;;;;;13.32;5.45;;;;;;;22.52;69.32;97671.13;4425650;32;20372;-86
2023/06/10 03:29:44;;;;;;;16.33;5.85;;;;;;;23.23;63.90;97665.03;4425583;32;20108;-85
2023/06/10 03:32:11;;;;;;;11.85;5.35;;;;;;;23.10;63.85;97668.06;4425305;32;20146;-86
2023/06/10 03:34:38;;;;;;;13.50;5.53;;;;;;;22.84;64.93;97670.63;4425646;32;20106;-85
2023/06/10 03:37:05;;;;;;;12.98;4.95;;;;;;;22.98;64.66;97666.66;4425635;32;20110;-86
2023/06/10 03:39:33;;;;;;;13.00;5.50;;;;;;;22.69;66.22;97672.12;4425145;32;20115;-86
2023/06/10 03:42:00;;;;;;;12.70;4.85;;;;;;;22.62;67.43;97668.44;4425679;32;20090;-86
2023/06/10 03:44:27;;;;;;;10.85;5.03;;;;;;;22.51;68.01;97677.37;4425554;32;20552;-85
2023/06/10 03:46:55;;;;;;;10.52;5.18;;;;;;;23.12;64.94;97681.06;4425281;32;20141;-86
2023/06/10 03:49:25;;;;;;;14.77;5.05;;;;;;;22.96;66.15;97687.00;4425500;32;20702;-85
2023/06/10 03:51:52;;;;;;;12.07;4.57;;;;;;;23.22;65.72;97682.63;4425225;32;20098;-86
2023/06/10 03:54:19;;;;;;;11.63;4.65;;;;;;;23.89;63.42;97696.88;4425546;32;20089;-86
2023/06/10 03:56:48;;;;;;;9.88;4.57;;;;;;;24.64;59.27;97702.25;4425356;32;20100;-86
2023/06/10 03:59:15;;;;;;;10.25;4.45;;;;;;;24.89;57.57;97689.94;4425094;32;20105;-86
2023/06/10 04:01:43;;;;;;;13.68;4.80;;;;;;;25.03;56.74;97694.56;4425464;32;20433;-85
2023/06/10 04:04:14;;;;;;;10.82;4.00;;;;;;;24.95;57.73;97693.72;4425508;32;20338;-86
2023/06/10 04:06:43;;;;;;;9.18;4.20;;;;;;;25.50;55.83;97698.31;4425197;32;20089;-86
2023/06/10 04:09:10;;;;;;;9.68;4.32;;;;;;;26.12;54.42;97704.59;4425146;32;20086;-85
2023/06/10 04:11:37;;;;;;;11.00;4.37;;;;;;;26.59;51.97;97709.06;4425372;32;20122;-86
2023/06/10 04:14:05;;;;;;;10.27;4.72;;;;;;;27.00;51.11;97701.63;4425002;32;20544;-87
2023/06/10 04:16:32;;;;;;;10.65;4.37;;;;;;;27.19;50.40;97700.34;4425445;32;20099;-86
2023/06/10 04:19:00;;;;;;;8.25;3.95;;;;;;;27.63;49.38;97692.47;4425298;32;20152;-86
2023/06/10 04:21:27;;;;;;;11.73;4.60;;;;;;;27.99;48.71;97693.63;4425022;32;20137;-86
2023/06/10 04:23:54;;;;;;;9.13;4.70;;;;;;;27.69;48.53;97692.78;4425342;32;20365;-86
2023/06/10 04:26:21;;;;;;;9.57;4.70;;;;;;;28.96;46.00;97697.63;4425340;32;20086;-86
2023/06/10 04:28:48;;;;;;;8.35;4.18;;;;;;;29.48;44.76;97688.47;4424534;32;20429;-86
2023/06/10 04:31:15;;;;;;;9.88;4.40;;;;;;;30.06;43.14;97694.34;4425293;32;20101;-86
2023/06/10 04:33:42;;;;;;;9.40;4.35;;;;;;;29.94;43.09;97691.41;4424469;32;20090;-86
2023/06/10 04:36:09;;;;;;;9.98;4.50;;;;;;;30.49;42.37;97696.78;4424558;32;20149;-87
2023/06/10 04:38:36;;;;;;;9.25;4.78;;;;;;;30.75;41.62;97696.88;4425011;32;20141;-86
2023/06/10 04:41:03;;;;;;;11.02;4.80;;;;;;;30.56;41.65;97692.31;4424998;32;20150;-87
2023/06/10 04:43:30;;;;;;;9.90;5.00;;;;;;;29.41;44.51;97689.41;4425283;32;20094;-86
2023/06/10 04:45:57;;;;;;;9.68;4.45;;;;;;;30.68;42.12;97693.38;4425210;32;20137;-86
2023/06/10 04:48:24;;;;;;;9.02;4.90;;;;;;;31.23;40.53;97687.94;4424819;32;20099;-86
2023/06/10 04:50:51;;;;;;;10.68;5.53;;;;;;;30.97;41.21;97688.72;4425083;32;20090;-86
2023/06/10 04:53:18;;;;;;;9.07;4.68;;;;;;;30.88;41.52;97692.59;4424994;32;20093;-86
2023/06/10 04:55:46;;;;;;;9.65;4.87;;;;;;;31.07;40.57;97689.13;4424780;32;20107;-86
2023/06/10 04:58:13;;;;;;;9.80;4.93;;;;;;;30.50;42.30;97691.25;4425172;32;20480;-86
2023/06/10 05:00:40;;;;;;;9.98;5.20;;;;;;;29.77;43.94;97699.87;4424996;32;20110;-86
2023/06/10 05:03:07;;;;;;;10.60;5.05;;;;;;;28.63;46.52;97691.97;4424510;32;20157;-86
2023/06/10 05:05:34;;;;;;;12.73;5.35;;;;;;;29.52;45.37;97688.91;4425090;32;20101;-86
2023/06/10 05:08:01;;;;;;;8.90;4.55;;;;;;;30.62;42.64;97688.81;4424122;32;20147;-86
2023/06/10 05:10:31;;;;;;;9.55;5.20;;;;;;;30.97;41.85;97691.37;4424296;32;20169;-86
2023/06/10 05:12:58;;;;;;;9.88;4.82;;;;;;;31.30;40.92;97691.44;4411568;32;20155;-86
2023/06/10 05:15:25;;;;;;;11.20;5.25;;;;;;;30.74;42.03;97678.44;4424939;32;20643;-86
2023/06/10 05:17:52;;;;;;;10.05;5.53;;;;;;;31.38;40.70;97689.38;4424592;32;20148;-86
2023/06/10 05:20:19;;;;;;;10.40;5.32;;;;;;;31.72;39.84;97690.16;4424526;32;20097;-86
2023/06/10 05:22:46;;;;;;;11.77;5.35;;;;;;;31.19;40.71;97686.69;4424836;32;20108;-86
2023/06/10 05:25:13;;;;;;;9.68;5.15;;;;;;;31.30;40.48;97683.44;4423923;32;20093;-86
2023/06/10 05:27:42;;;;;;;10.32;5.43;;;;;;;31.89;39.70;97690.53;4424660;32;20106;-86
2023/06/10 05:30:10;;;;;;;9.43;5.25;;;;;;;32.64;38.35;97689.00;4424254;32;20117;-87
2023/06/10 05:32:37;;;;;;;9.80;5.22;;;;;;;33.03;37.06;97698.66;4424694;32;20098;-86
2023/06/10 05:35:06;;;;;;;10.95;5.10;;;;;;;33.52;36.27;97702.38;4424599;32;20089;-86
2023/06/10 05:37:34;;;;;;;10.10;4.75;;;;;;;33.40;36.09;97698.81;4424301;32;20147;-87
2023/06/10 05:40:01;;;;;;;9.18;5.25;;;;;;;33.61;36.36;97700.25;4424391;32;20095;-86
2023/06/10 05:42:28;;;;;;;8.80;4.75;;;;;;;33.52;36.13;97706.94;4424564;32;20103;-86
2023/06/10 05:44:55;;;;;;;9.55;4.93;;;;;;;32.44;37.77;97712.34;4424193;32;20081;-87
2023/06/10 05:47:22;;;;;;;9.55;4.85;;;;;;;32.49;37.41;97705.31;4424547;32;20081;-87
2023/06/10 05:49:51;;;;;;;10.15;4.72;;;;;;;33.56;35.42;97703.56;4424321;32;20162;-87
2023/06/10 05:52:18;;;;;;;8.85;4.55;;;;;;;33.94;34.73;97714.13;4423964;32;20153;-87
2023/06/10 05:54:45;;;;;;;9.48;4.93;;;;;;;31.48;38.38;97714.81;4424223;32;20086;-87
2023/06/10 05:57:12;;;;;;;10.05;5.03;;;;;;;30.52;40.58;97713.19;4424270;32;20094;-86
2023/06/10 05:59:39;;;;;;;8.68;4.47;;;;;;;30.01;41.97;97707.41;4423892;32;20098;-86
2023/06/10 06:02:06;;;;;;;8.95;4.68;;;;;;;29.85;43.12;97707.72;4424200;32;20115;-86
2023/06/10 06:04:34;;;;;;;9.57;5.32;;;;;;;29.94;42.45;97707.37;4424329;32;20136;-86
2023/06/10 06:07:01;;;;;;;10.45;4.93;;;;;;;28.77;45.37;97712.31;4423321;32;20090;-86
2023/06/10 06:09:28;;;;;;;9.93;5.15;;;;;;;27.70;47.33;97713.00;4423165;32;20094;-86
2023/06/10 06:11:55;;;;;;;11.20;5.00;;;;;;;26.85;50.14;97710.53;4423400;32;20144;-86
2023/06/10 06:14:21;;;;;;;9.93;5.28;;;;;;;27.82;48.45;97714.19;4423569;32;20173;-86
2023/06/10 06:16:48;;;;;;;10.00;5.35;;;;;;;28.45;46.97;97716.25;4424025;32;20141;-86
2023/06/10 06:19:15;;;;;;;10.30;5.45;;;;;;;27.99;48.52;97715.66;4424874;32;20121;-86
2023/06/10 06:21:42;;;;;;;11.07;5.30;;;;;;;28.62;47.17;97713.38;4426005;32;20089;-86
2023/06/10 06:24:09;;;;;;;10.13;5.43;;;;;;;28.28;47.43;97714.81;4425330;32;20090;-86
2023/06/10 06:26:36;;;;;;;11.38;6.00;;;;;;;28.29;48.06;97710.34;4425566;32;20090;-86
2023/06/10 06:29:03;;;;;;;10.73;5.50;;;;;;;27.91;48.95;97713.09;4425650;32;20149;-86
2023/06/10 06:31:30;;;;;;;10.23;5.12;;;;;;;27.65;49.88;97706.41;4425556;32;20158;-87
2023/06/10 06:33:57;;;;;;;8.95;4.47;;;;;;;28.35;47.37;97707.75;4425679;32;20157;-87
2023/06/10 06:36:24;;;;;;;11.48;5.45;;;;;;;27.57;50.30;97698.50;4426046;32;20346;-87
2023/06/10 06:38:51;;;;;;;9.00;4.55;;;;;;;28.27;47.68;97701.72;4425934;32;20102;-87
2023/06/10 06:41:19;;;;;;;9.57;4.80;;;;;;;29.03;46.16;97701.19;4425688;32;20419;-87
2023/06/10 06:43:46;;;;;;;10.10;5.05;;;;;;;28.55;48.08;97702.69;4425612;32;20166;-87
2023/06/10 06:46:13;;;;;;;9.07;4.75;;;;;;;27.43;51.95;97695.81;4425862;32;20104;-87
2023/06/10 06:48:43;;;;;;;8.88;4.50;;;;;;;28.78;48.25;97706.00;4425662;32;20155;-87
2023/06/10 06:51:10;;;;;;;11.07;4.97;;;;;;;27.54;51.29;97704.19;4425924;32;20106;-86
2023/06/10 06:53:44;;;;;;;8.80;4.40;;;;;;;27.86;51.32;97710.16;4425846;32;20089;-86
2023/06/10 06:56:13;;;;;;;9.95;4.80;;;;;;;26.99;54.00;97707.94;4425691;32;20082;-86
2023/06/10 06:58:41;;;;;;;10.00;5.07;;;;;;;26.38;53.82;97704.38;4425774;32;20468;-86
2023/06/10 07:01:08;;;;;;;9.18;4.62;;;;;;;26.40;55.56;97701.56;4425794;32;20523;-86
2023/06/10 07:03:35;;;;;;;10.38;4.97;;;;;;;25.78;56.50;97706.72;4425675;32;20134;-86
2023/06/10 07:06:02;;;;;;;9.40;4.57;;;;;;;25.60;57.86;97704.25;4425739;32;20090;-86
2023/06/10 07:08:29;;;;;;;9.95;4.87;;;;;;;25.67;56.72;97700.78;4425380;32;20107;-86
2023/06/10 07:10:56;;;;;;;10.35;4.80;;;;;;;25.02;60.71;97705.31;4425619;32;20152;-87
2023/06/10 07:13:22;;;;;;;11.07;4.82;;;;;;;25.36;59.49;97707.75;4425812;32;20138;-87
2023/06/10 07:15:49;;;;;;;11.23;5.12;;;;;;;24.77;62.91;97694.69;4425436;32;20207;-87
2023/06/10 07:18:17;;;;;;;11.45;4.70;;;;;;;25.38;59.28;97703.12;4425720;32;20137;-85
2023/06/10 07:20:44;;;;;;;9.65;4.87;;;;;;;25.16;60.24;97703.81;4429164;32;20160;-85
2023/06/10 07:23:11;;;;;;;10.63;5.18;;;;;;;24.04;64.57;97705.03;4434440;32;20049;-86
2023/06/10 07:25:38;;;;;;;16.23;5.50;;;;;;;23.52;68.14;97701.59;4425614;32;20141;-86
2023/06/10 07:28:05;;;;;;;10.35;5.28;;;;;;;24.44;64.71;97704.34;4425606;32;20087;-86
2023/06/10 07:30:31;;;;;;;9.98;5.03;;;;;;;25.50;61.86;97698.31;4424691;32;20106;-86
2023/06/10 07:32:59;;;;;;;10.85;5.00;;;;;;;25.23;60.88;97702.16;4425690;32;20105;-86
2023/06/10 07:35:26;;;;;;;10.95;5.40;;;;;;;25.20;60.34;97692.78;4425606;32;20085;-86
2023/06/10 07:37:53;;;;;;;10.38;5.22;;;;;;;24.95;62.44;97701.63;4425291;32;20125;-87
2023/06/10 07:40:20;;;;;;;9.70;5.00;;;;;;;25.86;59.25;97698.78;4425424;32;20132;-87
2023/06/10 07:42:47;;;;;;;9.50;4.30;;;;;;;26.46;57.83;97691.06;4425560;32;20180;-88
2023/06/10 07:45:13;;;;;;;10.38;5.20;;;;;;;26.97;53.43;97695.88;4425343;32;20097;-87
2023/06/10 07:47:41;;;;;;;11.70;5.00;;;;;;;27.80;52.52;97687.88;4425587;32;20240;-88
2023/06/10 07:50:08;;;;;;;8.82;3.75;;;;;;;29.07;47.76;97689.16;4425385;32;20090;-87
2023/06/10 07:52:35;;;;;;;8.90;4.43;;;;;;;28.63;49.10;97691.16;4425167;32;20144;-87
2023/06/10 07:55:04;;;;;;;11.02;4.00;;;;;;;28.19;48.96;97689.41;4411735;32;20141;-87
2023/06/10 07:57:36;;;;;;;8.30;3.42;;;;;;;29.45;44.94;97678.19;4425207;32;20161;-88
2023/06/10 08:00:04;;;;;;;9.45;4.28;;;;;;;30.12;44.74;97690.09;4425325;32;20440;-87
2023/06/10 08:02:31;;;;;;;9.02;3.72;;;;;;;30.15;43.88;97687.84;4425548;32;20094;-87
2023/06/10 08:04:58;;;;;;;7.47;3.50;;;;;;;30.90;42.24;97690.53;4425185;32;20124;-87
2023/06/10 08:07:25;;;;;;;9.02;3.78;;;;;;;30.05;43.89;97687.38;4425420;32;20521;-87
2023/06/10 08:09:52;;;;;;;7.87;3.87;;;;;;;30.94;41.75;97691.78;4425142;32;20086;-87
2023/06/10 08:12:20;;;;;;;7.15;3.50;;;;;;;31.97;39.20;97692.16;4424970;32;20456;-88
2023/06/10 08:14:47;;;;;;;7.87;3.50;;;;;;;32.23;38.88;97694.75;4425167;32;20134;-88
2023/06/10 08:17:14;;;;;;;7.62;3.47;;;;;;;31.13;40.16;97685.63;4425433;32;20159;-87
2023/06/10 08:19:41;;;;;;;8.60;4.10;;;;;;;30.39;41.75;97686.50;4424965;32;20516;-87
2023/06/10 08:22:08;;;;;;;8.32;3.12;;;;;;;31.89;40.09;97695.84;4425327;32;20160;-87
2023/06/10 08:24:34;;;;;;;5.65;2.75;;;;;;;32.62;36.50;97687.59;4411466;32;20143;-87
2023/06/10 08:27:01;;;;;;;5.97;2.83;;;;;;;32.53;35.57;97693.16;4424938;32;20134;-87
2023/06/10 08:29:31;;;;;;;7.05;2.85;;;;;;;31.95;37.21;97703.03;4425247;32;20116;-87
2023/06/10 08:31:58;;;;;;;4.65;2.53;;;;;;;29.89;39.99;97685.88;4425275;32;20460;-87
2023/06/10 08:34:25;;;;;;;5.18;2.45;;;;;;;31.45;37.20;97692.00;4411067;32;20082;-87
2023/06/10 08:36:55;;;;;;;7.82;3.55;;;;;;;30.70;39.94;97699.31;4425276;32;20106;-87
2023/06/10 08:39:22;;;;;;;8.35;4.05;;;;;;;31.12;41.45;97701.84;4425085;32;20158;-86
2023/06/10 08:42:06;;;;;;;8.02;3.85;;;;;;;31.33;40.33;97691.00;4423736;32;20176;-86
2023/06/10 08:44:37;;;;;;;8.32;4.05;;;;;;;30.11;43.16;97694.59;4425272;32;20066;-86
2023/06/10 08:47:15;;;;;;;9.27;4.20;;;;;;;30.18;44.04;97692.78;4411708;32;20093;-86
2023/06/10 08:49:46;;;;;;;8.00;4.03;;;;;;;29.83;44.87;97691.97;4425037;32;20162;-86
2023/06/10 08:52:19;;;;;;;9.02;4.60;;;;;;;28.63;48.35;97693.81;4425123;32;20172;-86
2023/06/10 08:55:13;;;;;;;9.07;4.57;;;;;;;28.87;48.16;97685.47;4424684;32;20128;-86
2023/06/10 08:57:42;;;;;;;8.13;4.05;;;;;;;27.69;52.04;97698.09;4395981;32;20101;-86
2023/06/10 09:00:09;;;;;;;8.48;4.45;;;;;;;25.63;59.87;97699.47;4424977;32;20122;-85
2023/06/10 09:02:37;;;;;;;9.40;4.60;;;;;;;25.98;59.95;97699.22;4424791;32;20094;-86
2023/06/10 09:05:05;;;;;;;9.00;3.87;;;;;;;24.68;67.02;97698.31;4411314;32;20077;-85
2023/06/10 09:07:34;;;;;;;8.68;4.22;;;;;;;24.43;67.27;97697.41;4424691;32;20094;-85
2023/06/10 09:10:03;;;;;;;10.38;4.32;;;;;;;24.34;69.28;97695.75;4424573;32;20508;-85
2023/06/10 09:12:30;;;;;;;9.27;4.03;;;;;;;24.13;71.38;97692.69;4424840;32;20176;-85
2023/06/10 09:14:57;;;;;;;9.07;4.35;;;;;;;24.43;70.87;97699.22;4410659;32;20104;-85
2023/06/10 09:17:25;;;;;;;9.07;4.50;;;;;;;24.16;70.11;97690.56;4424905;32;20445;-85
2023/06/10 09:19:55;;;;;;;9.65;4.87;;;;;;;24.11;70.89;97686.75;4424654;32;20504;-85
2023/06/10 09:22:22;;;;;;;9.05;4.18;;;;;;;24.58;69.17;97689.72;4411029;32;20102;-85
2023/06/10 09:24:49;;;;;;;9.48;4.93;;;;;;;24.59;70.90;97690.56;4424768;32;20425;-85
2023/06/10 09:27:16;;;;;;;10.20;4.80;;;;;;;25.19;67.06;97685.00;4424724;32;20105;-85
2023/06/10 09:29:53;;;;;;;10.90;4.90;;;;;;;25.54;65.32;97681.16;4424273;32;20108;-86
2023/06/10 09:32:20;;;;;;;;;;;;;;;25.18;66.72;97685.97;4424879;32;20089;-85
2023/06/10 09:34:48;;;;;;;9.00;4.37;;;;;;;26.61;61.96;97688.53;4424595;32;20021;-86
2023/06/10 09:37:24;;;;;;;8.27;3.75;;;;;;;26.60;60.63;97683.41;4424315;32;20090;-86
2023/06/10 09:40:08;;;;;;;8.15;3.83;;;;;;;26.24;60.06;97676.78;4424409;32;20157;-86
2023/06/10 09:42:38;;;;;;;8.27;3.97;;;;;;;26.81;58.17;97678.31;4424278;32;20135;-86
2023/06/10 09:45:07;;;;;;;8.75;3.90;;;;;;;27.08;55.57;97676.94;4424493;32;20141;-86
2023/06/10 09:47:34;;;;;;;7.50;3.62;;;;;;;26.91;55.23;97684.19;4424473;32;20094;-86
2023/06/10 09:50:01;;;;;;;9.23;3.97;;;;;;;27.40;54.88;97683.78;4423871;32;20449;-86
2023/06/10 09:52:29;;;;;;;6.60;3.15;;;;;;;27.57;53.58;97687.91;4424302;32;20104;-86
2023/06/10 09:55:01;;;;;;;7.10;3.30;;;;;;;27.71;51.85;97688.12;4426070;32;20090;-86
2023/06/10 09:57:39;;;;;;;9.27;4.15;;;;;;;27.71;51.40;97685.47;4425931;32;20086;-86
2023/06/10 10:00:08;;;;;;;8.73;4.05;;;;;;;27.51;50.83;97693.09;4426260;32;20106;-86
2023/06/10 10:02:49;;;;;;;8.38;4.07;;;;;;;27.17;52.94;97689.13;4426257;32;20089;-86
2023/06/10 10:05:19;;;;;;;7.87;3.53;;;;;;;27.25;53.46;97681.09;4425982;32;20086;-86
2023/06/10 10:07:47;;;;;;;8.57;3.75;;;;;;;26.49;55.86;97687.28;4426281;32;20442;-85
2023/06/10 10:10:15;;;;;;;7.80;3.62;;;;;;;26.39;55.61;97679.56;4425970;32;20155;-85
2023/06/10 10:12:42;;;;;;;8.50;4.37;;;;;;;26.70;54.64;97681.38;4426008;32;20104;-86
2023/06/10 10:15:11;;;;;;;8.07;3.80;;;;;;;26.27;55.79;97677.47;4426141;32;20148;-85
2023/06/10 10:17:53;;;;;;;8.60;3.87;;;;;;;26.46;55.62;97683.13;4426111;32;20166;-86
2023/06/10 10:20:25;;;;;;;8.18;4.03;;;;;;;26.15;57.37;97680.47;4412245;32;20123;-86
2023/06/10 10:22:53;;;;;;;11.10;4.35;;;;;;;26.52;56.82;97684.28;4412533;32;20089;-86
2023/06/10 10:25:28;;;;;;;7.97;3.83;;;;;;;27.49;53.74;97682.69;4412145;32;20089;-86
2023/06/10 10:27:59;;;;;;;8.05;4.10;;;;;;;26.79;54.26;97672.34;4412551;32;20117;-86
2023/06/10 10:30:28;;;;;;;8.73;4.43;;;;;;;26.61;54.78;97674.47;4412298;32;20121;-86
2023/06/10 10:33:09;;;;;;;9.05;4.10;;;;;;;25.94;57.10;97667.81;4425726;32;20574;-86
2023/06/10 10:35:37;;;;;;;8.23;4.07;;;;;;;27.37;53.05;97670.91;4426079;32;20069;-86
2023/06/10 10:38:05;;;;;;;9.27;4.37;;;;;;;27.63;52.19;97678.41;4426069;32;20116;-86
2023/06/10 10:40:32;;;;;;;8.15;4.10;;;;;;;28.32;49.67;97675.50;4425392;32;20114;-86
2023/06/10 10:42:59;;;;;;;9.85;3.65;;;;;;;28.09;50.62;97671.13;4412333;32;20089;-86
2023/06/10 10:45:30;;;;;;;8.68;4.10;;;;;;;28.14;51.66;97679.31;4412350;32;20108;-85
2023/06/10 10:47:57;;;;;;;9.13;4.00;;;;;;;27.39;55.33;97672.34;4425631;32;20141;-86
2023/06/10 10:50:30;;;;;;;8.68;3.90;;;;;;;26.49;59.25;97669.59;4425773;32;20112;-85
2023/06/10 10:53:05;;;;;;;9.80;4.12;;;;;;;25.36;65.74;97663.69;4425795;32;20089;-86
2023/06/10 10:55:32;;;;;;;8.65;4.22;;;;;;;26.03;64.05;97668.63;4425783;32;20086;-85
2023/06/10 10:58:04;;;;;;;8.75;4.32;;;;;;;25.46;67.34;97668.78;4425892;32;20434;-86
2023/06/10 11:00:35;;;;;;;8.57;4.05;;;;;;;25.42;65.80;97664.03;4425553;32;20102;-86
2023/06/10 11:03:02;;;;;;;9.43;4.47;;;;;;;26.59;59.89;97661.44;4425976;32;20085;-86
2023/06/10 11:05:38;;;;;;;8.60;4.65;;;;;;;26.89;58.79;97664.97;4425231;32;20078;-85
2023/06/10 11:08:06;;;;;;;9.00;4.28;;;;;;;27.78;56.42;97666.03;4425480;32;20444;-86
2023/06/10 11:10:52;;;;;;;10.25;4.00;;;;;;;27.72;56.65;97668.56;4425536;32;20110;-85
2023/06/10 11:13:21;;;;;;;7.87;3.80;;;;;;;27.89;55.22;97664.75;4425941;32;20448;-85
2023/06/10 11:15:50;;;;;;;8.55;3.97;;;;;;;27.27;57.48;97659.75;4425401;32;20380;-85
2023/06/10 11:18:20;;;;;;;9.43;4.47;;;;;;;26.87;59.88;97658.22;4425813;32;20161;-85
2023/06/10 11:20:50;;;;;;;9.88;4.05;;;;;;;26.49;61.02;97658.19;4425728;32;20141;-85
2023/06/10 11:23:33;;;;;;;9.35;4.18;;;;;;;26.28;61.50;97660.59;4425806;32;20504;-85
2023/06/10 11:26:14;;;;;;;9.40;4.12;;;;;;;25.87;63.70;97650.22;4425806;32;20070;-85
2023/06/10 11:29:04;;;;;;;9.40;4.35;;;;;;;26.52;62.66;97648.06;4425273;32;20113;-85
2023/06/10 11:31:33;;;;;;;9.20;4.35;;;;;;;26.62;61.43;97647.00;4425543;32;20163;-85
2023/06/10 11:34:06;;;;;;;9.13;4.32;;;;;;;26.44;61.44;97645.47;4411783;32;20094;-86
2023/06/10 11:36:36;;;;;;;9.27;4.30;;;;;;;26.60;61.21;97646.37;4425432;32;20479;-86